EZY1921 EGCC-LEAL
Flight info
| Callsign | EZY1921 |
|---|---|
| Flight time | N/A |
| Altitude | 37000 |
| Route | LISTO P18 TELBA L151 KIDLI UN859 SOPIL DCT BALAN DCT LMG DCT PIMQO DCT AGN DCT ANETO DCT POSSY DCT XIMPE DCT RIMES N860 VLC |
| Aircraft | A20N/M-SDE2E3FGHIRWXY/LB1 |
Departure
| Time | N/A |
|---|---|
| Airport | Manchester Airport (EGCC) |
Arrival
| Time | 2026-05-03 20:22 |
|---|---|
| Airport | Alicante-Elche Miguel Hernández Airport (LEAL) |
| Time | Latitude | Longitude | Altitude | Speed | Heading |
|---|---|---|---|---|---|
| 2026-05-03 20:15 | 38.33305 | -0.92430 | 5471 ft | 251 kts | 103° |
| 2026-05-03 20:15 | 38.32977 | -0.90259 | 5236 ft | 249 kts | 99° |
| 2026-05-03 20:15 | 38.32695 | -0.88128 | 4910 ft | 237 kts | 100° |
| 2026-05-03 20:15 | 38.32418 | -0.86133 | 4596 ft | 222 kts | 100° |
| 2026-05-03 20:16 | 38.32159 | -0.84258 | 4344 ft | 206 kts | 101° |
| 2026-05-03 20:16 | 38.31920 | -0.82540 | 4070 ft | 189 kts | 101° |
| 2026-05-03 20:16 | 38.31699 | -0.80948 | 3817 ft | 176 kts | 101° |
| 2026-05-03 20:16 | 38.31498 | -0.79490 | 3606 ft | 159 kts | 101° |
| 2026-05-03 20:17 | 38.31315 | -0.78169 | 3401 ft | 145 kts | 101° |
| 2026-05-03 20:17 | 38.31143 | -0.76932 | 3194 ft | 142 kts | 102° |
| 2026-05-03 20:17 | 38.30966 | -0.75697 | 3037 ft | 142 kts | 102° |
| 2026-05-03 20:17 | 38.30787 | -0.74468 | 2884 ft | 141 kts | 102° |
| 2026-05-03 20:18 | 38.30605 | -0.73242 | 2721 ft | 141 kts | 102° |
| 2026-05-03 20:18 | 38.30438 | -0.72019 | 2511 ft | 140 kts | 100° |
| 2026-05-03 20:18 | 38.30274 | -0.70803 | 2265 ft | 139 kts | 100° |
| 2026-05-03 20:18 | 38.30108 | -0.69600 | 2069 ft | 137 kts | 100° |
| 2026-05-03 20:19 | 38.29956 | -0.68397 | 1917 ft | 138 kts | 99° |
| 2026-05-03 20:19 | 38.29785 | -0.67194 | 1747 ft | 138 kts | 102° |
| 2026-05-03 20:19 | 38.29598 | -0.66010 | 1570 ft | 136 kts | 101° |
| 2026-05-03 20:19 | 38.29442 | -0.64837 | 1392 ft | 135 kts | 98° |
| 2026-05-03 20:20 | 38.29293 | -0.63661 | 1225 ft | 134 kts | 99° |
| 2026-05-03 20:20 | 38.29130 | -0.62511 | 1031 ft | 133 kts | 99° |
| 2026-05-03 20:20 | 38.28979 | -0.61354 | 814 ft | 130 kts | 98° |
| 2026-05-03 20:20 | 38.28832 | -0.60223 | 592 ft | 130 kts | 101° |
| 2026-05-03 20:21 | 38.28659 | -0.59096 | 429 ft | 129 kts | 99° |
| 2026-05-03 20:21 | 38.28517 | -0.57969 | 265 ft | 129 kts | 100° |
| 2026-05-03 20:21 | 38.28361 | -0.56871 | 147 ft | 128 kts | 100° |
| 2026-05-03 20:21 | 38.28204 | -0.55774 | 102 ft | 111 kts | 99° |
| 2026-05-03 20:22 | 38.28135 | -0.55217 | 86 ft | 32 kts | 97° |
| 2026-05-03 20:22 | 38.28131 | -0.54963 | 75 ft | 29 kts | 79° |
| 2026-05-03 20:22 | 38.28171 | -0.54796 | 64 ft | 15 kts | 66° |
| 2026-05-03 20:22 | 38.28213 | -0.54713 | 61 ft | 6 kts | 10° |
| 2026-05-03 20:23 | 38.28223 | -0.54714 | 65 ft | 0 kts | 352° |
| 2026-05-03 20:23 | 38.28237 | -0.54727 | 64 ft | 8 kts | 314° |
| 2026-05-03 20:23 | 38.28262 | -0.54830 | 70 ft | 14 kts | 280° |
| 2026-05-03 20:24 | 38.28280 | -0.54965 | 73 ft | 16 kts | 279° |
| 2026-05-03 20:24 | 38.28296 | -0.55103 | 81 ft | 15 kts | 278° |
| 2026-05-03 20:24 | 38.28331 | -0.55203 | 85 ft | 11 kts | 338° |
| 2026-05-03 20:24 | 38.28404 | -0.55160 | 86 ft | 13 kts | 12° |
| 2026-05-03 20:25 | 38.28464 | -0.55187 | 87 ft | 8 kts | 8° |
| 2026-05-03 20:25 | 38.28520 | -0.55176 | 92 ft | 0 kts | 10° |